Sunday, August 19, 2018, 1:54 PM EDT
Back to Local

KELZ, Wellsville Municipal Airport

Location: Wellsville, NY, United States Lat: 42.1
Local Time: 1:54 PM EDT (17:54 GMT) Lon: -78
Time Zone: US/Eastern Elev: 2122 ft

Show me the last for .
Show Decoded

2018-08-19 12:56 METAR KELZ 191656Z AUTO 10005KT 10SM OVC031 21/16 A3008 RMK AO2 SLP177 T02110161
                 $ =
2018-08-19 11:56 METAR KELZ 191556Z AUTO 04005KT 10SM FEW015 OVC031 21/16 A3008 RMK AO2 SLP177
                 T02060161 $ =
2018-08-19 11:14 METAR KELZ 191514Z AUTO 06004KT 10SM FEW010 SCT015 BKN032 20/16 A3008 RMK AO2
                 T02000161 $ =
2018-08-19 10:56 METAR KELZ 191456Z AUTO VRB04KT 10SM BKN010 OVC015 19/16 A3008 RMK AO2 CIG
                 008V012 SLP180 T01890161 53001 $ =
2018-08-19 10:45 METAR KELZ 191445Z AUTO 06005KT 10SM BKN012 BKN036 19/16 A3008 RMK AO2 T01940161
                 $ =
2018-08-19 09:56 METAR KELZ 191356Z AUTO 06003KT 10SM SCT008 18/16 A3008 RMK AO2 SLP178 T01780161
                 $ =
2018-08-19 09:53 METAR KELZ 191353Z AUTO 06004KT 10SM SCT008 18/16 A3007 RMK AO2 $ =
2018-08-19 09:13 METAR KELZ 191313Z AUTO 04004KT 7SM OVC005 16/16 A3008 RMK AO2 CIG 003V008
                 T01610161 $ =
2018-08-19 08:56 METAR KELZ 191256Z AUTO 00000KT 6SM BR OVC004 16/16 A3008 RMK AO2 CIG 003V007
                 SLP182 T01560156 $ =
2018-08-19 08:33 METAR KELZ 191233Z AUTO 00000KT 5SM BR OVC002 16/16 A3007 RMK AO2 T01560156 $ =
2018-08-19 08:22 METAR KELZ 191222Z AUTO 00000KT 2SM BR OVC002 16/16 A3007 RMK AO2 T01560156 $ =
2018-08-19 08:17 METAR KELZ 191217Z AUTO 00000KT 3/4SM BR VV002 16/15 A3007 RMK AO2 T01560150 $ =
2018-08-19 07:56 METAR KELZ 191156Z AUTO 07004KT 1/4SM FG VV002 15/15 A3006 RMK AO2 SLP176 70016
                 T01500150 10161 20150 53013 $ =
2018-08-19 06:56 METAR KELZ 191056Z AUTO 32003KT M1/4SM FG VV001 15/15 A3004 RMK AO2 SLP168
                 T01500150 $ =
2018-08-19 06:37 METAR KELZ 191037Z AUTO VRB03KT 1/4SM FG VV002 15/15 A3004 RMK AO2 T01500150 $ =
2018-08-19 06:26 METAR KELZ 191026Z AUTO 00000KT 3/4SM BR OVC002 15/15 A3004 RMK AO2 T01500150 $
                 =
2018-08-19 06:18 METAR KELZ 191018Z AUTO 34003KT 2SM BR OVC002 15/14 A3003 RMK AO2 T01500144 $ =
2018-08-19 05:56 METAR KELZ 190956Z AUTO 32003KT 4SM BR BKN002 OVC033 15/14 A3003 RMK AO2 SLP162
                 T01500144 $ =
2018-08-19 05:50 METAR KELZ 190950Z AUTO 33004KT 3SM BR OVC002 15/15 A3003 RMK AO2 $ =
2018-08-19 05:31 METAR KELZ 190931Z AUTO 36003KT 1 3/4SM BR OVC002 15/15 A3003 RMK AO2 VIS 1V3
                 T01500150 $ =
2018-08-19 05:18 METAR KELZ 190918Z AUTO 36004KT 4SM BR OVC002 16/15 A3003 RMK AO2 T01560150 $ =
2018-08-19 05:10 METAR KELZ 190910Z AUTO 35004KT 2SM BR OVC002 16/15 A3003 RMK AO2 T01560150 $ =
2018-08-19 04:56 METAR KELZ 190856Z AUTO 35003KT 1/2SM FG VV002 16/15 A3002 RMK AO2 SLP158
                 T01560150 53001 $ =
2018-08-19 04:54 METAR KELZ 190854Z AUTO 35004KT 3/4SM BR VV002 16/15 A3002 RMK AO2 $ =
2018-08-19 04:50 METAR KELZ 190850Z AUTO 33004KT 2 1/2SM BR BKN003 16/15 A3002 RMK AO2 $ =
2018-08-19 04:26 METAR KELZ 190826Z AUTO 34004KT 5SM BR SCT003 OVC008 16/16 A3002 RMK AO2 CIG
                 006V011 T01560156 $ =
2018-08-19 04:19 METAR KELZ 190819Z AUTO 36003KT 7SM BKN004 OVC009 16/16 A3002 RMK AO2 CIG
                 002V009 T01610156 $ =
2018-08-19 04:12 METAR KELZ 190812Z AUTO 02004KT 7SM OVC006 16/16 A3002 RMK AO2 CIG 002V008
                 T01610156 $ =
2018-08-19 03:56 METAR KELZ 190756Z AUTO 01004KT 6SM BR BKN002 OVC007 16/16 A3002 RMK AO2 SLP155
                 T01610156 $ =
2018-08-19 03:43 METAR KELZ 190743Z AUTO 35004KT 3SM BR OVC002 16/16 A3002 RMK AO2 T01560156 $ =
2018-08-19 03:30 METAR KELZ 190730Z AUTO 34004KT 1 3/4SM BR OVC001 16/16 A3001 RMK AO2 T01560156
                 $ =
2018-08-19 03:23 METAR KELZ 190723Z AUTO 33004KT 3SM BR OVC002 16/16 A3001 RMK AO2 T01560156 $ =
2018-08-19 03:16 METAR KELZ 190716Z AUTO 35004KT 2 1/2SM BR OVC002 16/16 A3001 RMK AO2 T01560156
                 $ =
2018-08-19 03:11 METAR KELZ 190711Z AUTO 35003KT 3/4SM BR OVC002 16/16 A3001 RMK AO2 T01560156 $
                 =
2018-08-19 03:03 METAR KELZ 190703Z AUTO 32003KT 1 1/2SM BR OVC002 16/16 A3001 RMK AO2 T01560156
                 $ =
2018-08-19 02:56 METAR KELZ 190656Z AUTO 00000KT 5SM BR OVC002 16/16 A3001 RMK AO2 SLP154
                 T01560156 $ =
2018-08-19 02:36 METAR KELZ 190636Z AUTO 00000KT 6SM BR OVC003 16/16 A3001 RMK AO2 T01610156 $ =
2018-08-19 01:56 METAR KELZ 190556Z AUTO 33003KT 5SM BR BKN004 16/15 A3002 RMK AO2 CIG 002V007
                 SLP157 T01560150 10172 20156 57002 $ =
2018-08-19 01:35 METAR KELZ 190535Z AUTO 32003KT 8SM FEW002 SCT026 16/15 A3002 RMK AO2 T01560150
                 $ =
2018-08-19 01:27 METAR KELZ 190527Z AUTO 33004KT 4SM BR BKN026 16/15 A3002 RMK AO2 T01560150 $ =
2018-08-19 01:23 METAR KELZ 190523Z AUTO 32003KT 1 1/2SM BR BKN026 16/16 A3002 RMK AO2 T01560156
                 $ =
2018-08-19 01:16 METAR KELZ 190516Z AUTO 33003KT 2 1/2SM BR FEW013 BKN028 16/15 A3002 RMK AO2
                 T01560150 $ =
2018-08-19 01:14 METAR KELZ 190514Z AUTO 33004KT 5SM BR FEW013 SCT028 16/15 A3002 RMK AO2
                 T01560150 $ =
2018-08-19 00:56 METAR KELZ 190456Z AUTO 34003KT 10SM FEW009 OVC026 16/16 A3002 RMK AO2 SLP158
                 T01610156 402390156 $ =
2018-08-19 00:37 METAR KELZ 190437Z AUTO 36003KT 8SM FEW002 OVC028 16/16 A3002 RMK AO2 T01610156
                 $ =
2018-08-19 00:06 METAR KELZ 190406Z AUTO 36004KT 10SM FEW015 BKN028 16/15 A3002 RMK AO2 T01560150
                 $ =
2018-08-18 23:56 METAR KELZ 190356Z AUTO 36003KT 10SM SCT027 16/15 A3002 RMK AO2 SLP159 T01560150
                 $ =
2018-08-18 23:05 METAR KELZ 190305Z AUTO 36005KT 10SM FEW009 FEW013 16/15 A3003 RMK AO2 T01610150
                 $ =
2018-08-18 22:56 METAR KELZ 190256Z AUTO 01004KT 10SM FEW013 16/15 A3003 RMK AO2 SLP161 T01610150
                 51005 $ =
2018-08-18 21:56 METAR KELZ 190156Z AUTO 01006KT 10SM CLR 16/15 A3003 RMK AO2 SLP161 T01610150 $
                 =
2018-08-18 20:56 METAR KELZ 190056Z AUTO 02006KT 10SM FEW026 17/14 A3003 RMK AO2 SLP160 T01670144
                 $ =
2018-08-18 19:56 METAR KELZ 182356Z AUTO 02008KT 10SM CLR 17/14 A3001 RMK AO2 SLP154 T01720139
                 10239 20172 53008 $ =
2018-08-18 19:33 METAR KELZ 182333Z AUTO 03012KT 10SM FEW020 18/14 A3000 RMK AO2 T01830144 $ =
2018-08-18 18:56 METAR KELZ 182256Z AUTO 03006KT 10SM SCT021 BKN027 19/15 A3000 RMK AO2 SLP147
                 T01940150 $ =
2018-08-18 17:56 METAR KELZ 182156Z AUTO 02006KT 10SM SCT020 BKN027 BKN032 21/16 A2999 RMK AO2
                 SLP143 T02060156 $ =
2018-08-18 17:54 METAR KELZ 182154Z AUTO 02007KT 10SM SCT020 BKN030 21/16 A2999 RMK AO2 $ =
2018-08-18 17:34 METAR KELZ 182134Z AUTO VRB04KT 10SM BKN021 BKN028 OVC032 20/16 A2998 RMK AO2
                 T02000156 $ =
2018-08-18 17:25 METAR KELZ 182125Z AUTO 01007KT 10SM FEW018 SCT025 OVC031 21/16 A2998 RMK AO2
                 T02060156 $ =
2018-08-18 17:11 METAR KELZ 182111Z AUTO 02008KT 10SM SCT018 BKN025 OVC031 20/16 A2998 RMK AO2
                 T02000161 $ =
2018-08-18 16:56 METAR KELZ 182056Z AUTO VRB06KT 10SM FEW020 OVC031 21/16 A2998 RMK AO2 SLP140
                 T02110161 55000 $ =
2018-08-18 15:56 METAR KELZ 181956Z AUTO 02009G17KT 10SM SCT023 OVC034 22/17 A2997 RMK AO2 SLP136
                 T02170167 $ =
2018-08-18 14:56 METAR KELZ 181856Z AUTO 36009G17KT 10SM FEW025 BKN036 23/17 A2998 RMK AO2 SLP138
                 T02280172 $ =
2018-08-18 14:17 METAR KELZ 181817Z AUTO 36008G14KT 10SM SCT026 BKN033 23/17 A2998 RMK AO2
                 T02330172 $ =
2018-08-18 14:10 METAR KELZ 181810Z AUTO VRB05KT 10SM BKN026 BKN033 23/17 A2998 RMK AO2 T02280172
                 $ =
2018-08-18 13:56 METAR KELZ 181756Z AUTO 03008KT 10SM SCT028 BKN033 22/17 A2998 RMK AO2 SLP140
                 60016 T02220172 10222 20183 53001 $ =

Support USWX by starting your Amazon purchase here.